Time;durP1;ratioP1;P1;durP2;ratioP2;P2;SDS_P1;SDS_P2;PMS_P1;PMS_P2;Temp;Humidity;BMP_temperature;BMP_pressure;BME280_temperature;BME280_humidity;BME280_pressure;Samples;Min_cycle;Max_cycle;Signal;HPM_P1;HPM_P2
2022/06/15 00:01:18;;;;;;;2.60;1.10;;;24.20;41.70;;;28.09;27.28;101830.81;5095288;28;20036;-13
2022/06/15 00:03:44;;;;;;;1.63;0.93;;;24.20;41.70;;;28.10;27.03;101829.84;5114737;28;20048;-13
2022/06/15 00:06:20;;;;;;;1.10;0.90;;;24.20;41.70;;;28.05;27.25;101829.31;5114617;28;20055;-14
2022/06/15 00:08:51;;;;;;;1.08;0.77;;;24.20;41.70;;;28.07;26.79;101830.09;5115078;28;20090;-14
2022/06/15 00:11:32;;;;;;;1.17;1.02;;;24.20;41.70;;;28.06;27.01;101836.44;5114973;28;20044;-13
2022/06/15 00:14:05;;;;;;;1.35;0.80;;;24.20;41.70;;;28.04;27.23;101833.84;5114649;28;20044;-13
2022/06/15 00:16:31;;;;;;;1.15;1.00;;;24.20;41.70;;;28.09;27.15;101834.34;5111171;28;20051;-13
2022/06/15 00:18:58;;;;;;;1.42;0.82;;;24.10;41.60;;;28.02;27.17;101825.06;5114377;28;20044;-13
2022/06/15 00:21:23;;;;;;;1.90;0.93;;;24.20;41.70;;;28.07;27.01;101832.78;5114690;28;20112;-13
2022/06/15 00:23:50;;;;;;;1.10;0.90;;;24.20;41.70;;;28.03;27.20;101816.03;5114744;28;20472;-14
2022/06/15 00:26:17;;;;;;;1.20;0.80;;;24.20;41.70;;;28.03;27.12;101816.03;5114273;28;20529;-13
2022/06/15 00:28:43;;;;;;;0.80;0.80;;;24.20;41.70;;;28.03;27.24;101825.91;5113754;28;20564;-14
2022/06/15 00:31:10;;;;;;;0.90;0.90;;;24.20;41.70;;;28.03;27.04;101821.41;5096388;28;20044;-13
2022/06/15 00:33:36;;;;;;;0.70;0.70;;;24.20;41.70;;;28.07;27.27;101824.72;5095943;28;20043;-14
2022/06/15 00:36:08;;;;;;;0.80;0.75;;;24.10;41.70;;;28.06;26.90;101828.38;5114196;28;20071;-14
2022/06/15 00:38:42;;;;;;;1.17;0.93;;;24.20;41.70;;;28.03;27.25;101823.22;5114027;28;20052;-14
2022/06/15 00:41:12;;;;;;;1.70;0.93;;;24.10;41.70;;;28.03;27.30;101828.59;5114764;28;20055;-13
2022/06/15 00:43:41;;;;;;;0.60;0.60;;;24.10;41.70;;;28.06;27.14;101825.69;5114644;28;20439;-13
2022/06/15 00:46:38;;;;;;;0.95;0.90;;;24.10;41.70;;;28.07;27.13;101835.47;5114497;28;20049;-13
2022/06/15 00:49:25;;;;;;;1.10;0.95;;;24.10;41.70;;;28.01;27.41;101822.47;5074341;28;20135;-13
2022/06/15 00:51:58;;;;;;;1.10;1.00;;;24.10;41.70;;;28.01;27.03;101826.03;5095802;28;20483;-13
2022/06/15 00:54:25;;;;;;;1.30;1.15;;;24.10;41.70;;;28.04;27.31;101827.63;5095906;28;20092;-13
2022/06/15 00:56:52;;;;;;;1.00;0.73;;;24.10;41.80;;;28.05;27.42;101832.91;5113792;28;20047;-13
2022/06/15 00:59:31;;;;;;;1.05;0.80;;;24.10;41.70;;;27.98;27.38;101817.34;5113006;28;20051;-13
2022/06/15 01:01:57;;;;;;;1.35;0.80;;;24.10;41.70;;;28.07;27.02;101824.72;5112691;28;20043;-13
2022/06/15 01:04:26;;;;;;;2.05;0.80;;;24.10;41.70;;;28.04;26.99;101822.25;5112466;28;20059;-11
2022/06/15 01:07:04;;;;;;;1.00;0.90;;;24.10;41.70;;;27.99;27.10;101811.00;5078902;28;20043;-11
2022/06/15 01:09:39;;;;;;;0.98;0.88;;;24.10;41.80;;;28.00;27.06;101804.63;5095270;28;20108;-11
2022/06/15 01:12:38;;;;;;;1.35;0.80;;;24.10;41.80;;;28.03;26.99;101809.78;5112530;28;20096;-13
2022/06/15 01:15:20;;;;;;;1.02;0.70;;;24.10;41.80;;;28.04;27.28;101814.19;5113839;28;20040;-13
2022/06/15 01:18:18;;;;;;;1.73;0.85;;;24.10;41.70;;;27.97;27.08;101803.06;5092963;28;20087;-14
2022/06/15 01:21:17;;;;;;;1.30;0.73;;;24.10;41.80;;;28.02;27.40;101798.19;5095184;28;20487;-13
2022/06/15 01:24:51;;;;;;;1.20;0.90;;;24.10;41.80;;;28.02;27.36;101817.00;5111076;28;20105;-13
2022/06/15 01:27:50;;;;;;;2.10;0.70;;;24.10;41.80;;;28.00;27.42;101804.63;5029857;28;20056;-13
2022/06/15 01:30:39;;;;;;;1.58;1.00;;;24.10;41.80;;;28.00;27.42;101810.88;5030338;28;20546;-13
2022/06/15 01:33:49;;;;;;;2.80;0.90;;;24.10;41.80;;;28.01;27.10;101817.13;5069523;28;20089;-13
2022/06/15 01:36:29;;;;;;;1.42;1.05;;;24.10;41.80;;;27.99;27.08;101809.16;5087618;28;20134;-13
2022/06/15 01:39:18;;;;;;;1.33;0.88;;;24.10;41.80;;;27.98;27.03;101817.34;5094831;28;20047;-14
2022/06/15 01:42:03;;;;;;;0.95;0.80;;;24.10;41.80;;;27.95;27.17;101814.88;5095295;28;20386;-13
2022/06/15 01:44:36;;;;;;;0.70;0.70;;;24.10;41.80;;;27.95;27.33;101815.75;5094900;28;20047;-13
2022/06/15 01:47:10;;;;;;;1.85;0.98;;;24.10;41.80;;;27.94;27.26;101807.81;5078102;28;20128;-13
2022/06/15 01:49:45;;;;;;;1.52;1.10;;;24.10;41.80;;;27.98;27.13;101814.66;5093860;28;20146;-14
2022/06/15 01:52:15;;;;;;;1.35;0.93;;;24.10;41.80;;;27.97;27.27;101807.59;5112198;28;20047;-13
2022/06/15 01:54:48;;;;;;;1.55;0.90;;;24.10;41.80;;;27.95;27.09;101807.69;5077814;28;20062;-12
2022/06/15 01:57:15;;;;;;;2.05;0.90;;;24.10;41.80;;;27.96;27.17;101803.16;5094890;28;20047;-11
2022/06/15 02:00:20;;;;;;;1.02;0.75;;;24.10;41.80;;;28.01;27.24;101804.53;5094541;28;20048;-11
2022/06/15 02:03:19;;;;;;;2.15;0.80;;;24.10;41.80;;;27.95;27.43;101799.63;5013666;28;20045;-14
2022/06/15 02:06:03;;;;;;;1.10;1.00;;;24.10;41.80;;;27.93;27.20;101801.56;5014039;28;20045;-13
2022/06/15 02:08:47;;;;;;;0.70;0.60;;;24.10;41.80;;;27.95;27.29;101804.13;5083187;28;20051;-13
2022/06/15 02:11:23;;;;;;;0.80;0.80;;;24.10;41.80;;;27.97;27.44;101811.13;5077550;28;20058;-14
2022/06/15 02:14:26;;;;;;;0.93;0.70;;;24.10;41.80;;;27.95;27.03;101805.00;5094928;28;20044;-13
2022/06/15 02:17:05;;;;;;;1.50;0.93;;;24.10;41.80;;;27.99;27.24;101805.63;5092815;28;20093;-13
2022/06/15 02:19:39;;;;;;;1.02;0.93;;;24.10;41.80;;;27.97;27.34;101804.91;5077430;28;20518;-13
2022/06/15 02:22:10;;;;;;;1.52;0.98;;;24.10;41.80;;;27.97;27.35;101804.91;5109555;28;20127;-13
2022/06/15 02:24:37;;;;;;;1.27;0.90;;;24.10;41.90;;;27.93;27.21;101792.66;5077618;28;20039;-13
2022/06/15 02:27:06;;;;;;;1.13;0.88;;;24.10;41.80;;;27.96;27.07;101800.47;5094443;28;20036;-13
2022/06/15 02:29:37;;;;;;;1.25;0.93;;;24.10;41.80;;;27.97;27.43;101796.84;5094076;28;20036;-13
2022/06/15 02:32:09;;;;;;;1.50;1.15;;;24.10;41.90;;;27.97;27.29;101803.06;5077404;28;20047;-13
2022/06/15 02:34:36;;;;;;;1.00;0.90;;;24.10;41.90;;;27.99;27.21;101803.78;5077371;28;20093;-14
2022/06/15 02:37:05;;;;;;;1.15;1.02;;;24.10;41.80;;;27.90;27.28;101791.03;5094137;28;20051;-14
2022/06/15 02:39:32;;;;;;;1.15;0.70;;;24.00;42.30;;;27.96;27.21;101789.72;5095735;28;20080;-13
2022/06/15 02:42:30;;;;;;;1.02;0.70;;;24.10;41.90;;;27.95;27.05;101798.75;5097599;28;20074;-13
2022/06/15 02:45:06;;;;;;;0.80;0.70;;;24.10;41.90;;;27.97;27.11;101794.16;5097584;28;20044;-13
2022/06/15 02:47:38;;;;;;;0.90;0.85;;;24.00;41.80;;;27.98;27.35;101794.00;5097234;28;20036;-14
2022/06/15 02:50:06;;;;;;;1.33;1.00;;;24.10;41.90;;;27.92;27.24;101781.03;5080904;28;20040;-13
2022/06/15 02:52:39;;;;;;;1.10;1.00;;;24.10;41.90;;;27.95;27.14;101788.88;5097469;28;20051;-13
2022/06/15 02:55:07;;;;;;;1.10;0.95;;;24.10;41.90;;;27.94;27.17;101773.72;5097744;28;20142;-13
2022/06/15 02:57:51;;;;;;;1.38;0.90;;;24.10;41.90;;;27.90;27.49;101777.59;5097399;28;20075;-13
2022/06/15 03:00:22;;;;;;;0.85;0.85;;;24.10;41.90;;;27.93;27.37;101782.75;5113599;28;20059;-14
2022/06/15 03:02:48;;;;;;;2.47;0.98;;;24.10;41.90;;;27.95;27.44;101786.19;5079722;28;20135;-13
2022/06/15 03:05:14;;;;;;;1.38;1.00;;;24.00;41.80;;;27.95;26.96;101769.19;5095971;28;20044;-13
2022/06/15 03:07:40;;;;;;;1.17;0.90;;;24.10;41.90;;;27.90;27.42;101765.00;5094967;28;20106;-13
2022/06/15 03:10:10;;;;;;;1.80;0.90;;;24.10;41.90;;;27.98;27.23;101780.56;5097004;28;20047;-13
2022/06/15 03:12:36;;;;;;;1.70;1.10;;;24.10;41.90;;;27.93;27.14;101772.00;5096890;28;20054;-13
2022/06/15 03:15:02;;;;;;;1.35;0.88;;;24.10;41.80;;;27.93;27.05;101774.69;5097060;28;20043;-13
2022/06/15 03:17:28;;;;;;;2.03;0.82;;;24.10;41.80;;;27.95;27.18;101779.94;5112175;28;20051;-14
2022/06/15 03:19:59;;;;;;;;;;;24.10;41.80;;;28.08;27.18;101776.19;5098173;28;20092;-13
2022/06/15 03:22:26;;;;;;;0.90;0.70;;;24.10;41.80;;;28.02;27.05;101789.25;5114011;28;20022;-14
2022/06/15 03:24:56;;;;;;;1.50;1.00;;;24.10;41.80;;;28.03;27.37;101785.59;5114549;28;20048;-13
2022/06/15 03:27:22;;;;;;;0.85;0.70;;;24.10;41.80;;;28.01;27.11;101792.91;5115762;28;20942;-13
2022/06/15 03:29:50;;;;;;;1.50;1.00;;;24.10;41.80;;;28.00;27.34;101794.75;5097347;28;20475;-13
2022/06/15 03:32:17;;;;;;;0.70;0.70;;;24.10;41.80;;;27.94;27.34;101784.47;5096897;28;20048;-13
2022/06/15 03:34:52;;;;;;;0.73;0.73;;;24.10;41.80;;;27.95;27.38;101785.31;5081685;28;20399;-13
2022/06/15 03:37:19;;;;;;;1.20;1.10;;;24.00;41.80;;;27.98;27.44;101793.16;5095441;28;20048;-13
2022/06/15 03:39:45;;;;;;;1.90;1.05;;;24.10;41.80;;;27.96;27.08;101803.16;5097087;28;20054;-13
2022/06/15 03:42:19;;;;;;;0.98;0.88;;;24.10;41.80;;;27.94;27.50;101787.16;5096738;28;20044;-13
2022/06/15 03:44:45;;;;;;;0.88;0.80;;;24.10;41.90;;;27.92;27.33;101786.41;5094860;28;20201;-14
2022/06/15 03:47:13;;;;;;;2.28;1.20;;;24.10;41.90;;;27.91;27.14;101792.75;5113957;28;20142;-14
2022/06/15 03:49:39;;;;;;;1.02;0.77;;;24.10;41.90;;;27.94;27.45;101784.47;5095224;28;20440;-13
2022/06/15 03:52:06;;;;;;;1.33;1.00;;;24.10;41.90;;;27.98;27.01;101794.00;5096603;28;20043;-14
2022/06/15 03:54:31;;;;;;;1.50;1.05;;;24.10;41.90;;;27.94;27.33;101776.41;5095243;28;20044;-13
2022/06/15 03:56:59;;;;;;;1.08;0.90;;;24.10;41.90;;;27.95;27.37;101777.25;5096303;28;20044;-13
2022/06/15 03:59:30;;;;;;;1.15;1.00;;;24.10;41.90;;;27.93;27.30;101773.84;5096378;28;20136;-13
2022/06/15 04:02:01;;;;;;;1.00;0.82;;;24.10;41.90;;;27.98;27.31;101788.63;5114072;28;20043;-14
2022/06/15 04:04:28;;;;;;;0.90;0.82;;;24.00;41.80;;;27.93;27.17;101779.22;5096217;28;20050;-13
2022/06/15 04:06:56;;;;;;;0.75;0.75;;;24.10;41.90;;;27.93;27.36;101774.69;5095492;28;20043;-13
2022/06/15 04:09:25;;;;;;;1.08;0.80;;;24.10;41.80;;;27.97;27.44;101783.41;5113024;28;20048;-13
2022/06/15 04:11:59;;;;;;;1.67;1.00;;;24.10;41.80;;;27.98;27.44;101785.09;5096247;28;20055;-13
2022/06/15 04:14:36;;;;;;;1.20;0.90;;;24.10;41.80;;;27.95;27.38;101782.63;5097950;28;20054;-14
2022/06/15 04:17:12;;;;;;;0.93;0.82;;;24.10;41.80;;;27.98;27.17;101793.16;5096625;28;20043;-13
2022/06/15 04:22:54;;;;;;;2.28;1.05;;;24.10;41.80;;;28.00;27.05;101786.69;5112292;28;20472;-12
2022/06/15 04:25:20;;;;;;;0.90;0.80;;;24.10;41.80;;;28.00;27.19;101788.50;5110919;28;20055;-12
2022/06/15 04:27:46;;;;;;;1.40;0.70;;;24.10;41.80;;;27.98;27.22;101785.09;5094992;28;20504;-12
2022/06/15 04:30:14;;;;;;;1.40;1.00;;;24.10;41.80;;;27.97;27.07;101778.03;5094695;28;20044;-12
2022/06/15 04:32:46;;;;;;;1.23;0.95;;;24.10;41.80;;;27.97;27.31;101776.19;5095335;28;20493;-12
2022/06/15 04:35:11;;;;;;;0.93;0.85;;;24.10;41.80;;;27.99;27.25;101784.13;5114023;28;20067;-12
2022/06/15 04:37:38;;;;;;;1.77;1.10;;;24.10;41.80;;;27.97;27.20;101784.25;5095450;28;20085;-12
2022/06/15 04:40:14;;;;;;;1.08;0.80;;;24.10;41.80;;;27.99;27.45;101784.97;5095941;28;20100;-12
2022/06/15 04:42:41;;;;;;;1.58;1.23;;;24.10;41.80;;;27.98;27.23;101777.03;5095831;28;20051;-12
2022/06/15 04:45:09;;;;;;;1.58;0.90;;;24.10;41.70;;;27.99;27.36;101776.91;5096124;28;20051;-12
2022/06/15 04:47:45;;;;;;;1.40;0.93;;;24.20;41.70;;;28.00;27.33;101785.81;5095582;28;20155;-13
2022/06/15 04:50:13;;;;;;;1.20;0.70;;;24.20;41.70;;;27.98;27.17;101777.88;5095827;28;20048;-12
2022/06/15 04:52:45;;;;;;;1.73;1.10;;;24.20;41.70;;;28.05;27.31;101787.19;5093952;28;20048;-12
2022/06/15 04:55:16;;;;;;;1.13;0.80;;;24.20;41.60;;;28.05;27.06;101792.56;5095098;28;20131;-13
2022/06/15 04:57:44;;;;;;;0.82;0.82;;;24.20;41.60;;;28.08;27.26;101795.03;5095455;28;20051;-12
2022/06/15 05:00:16;;;;;;;1.08;0.98;;;24.20;41.60;;;28.07;27.29;101798.66;5113669;28;20039;-13
2022/06/15 05:02:43;;;;;;;1.10;1.00;;;24.20;41.60;;;28.10;26.99;101797.59;5094057;28;20057;-12
2022/06/15 05:05:10;;;;;;;1.83;0.98;;;24.20;41.60;;;28.11;27.03;101788.53;5111584;28;20052;-13
2022/06/15 05:07:36;;;;;;;1.75;1.10;;;24.30;41.50;;;28.13;26.79;101785.72;5093379;28;20135;-12
2022/06/15 05:10:04;;;;;;;1.00;0.90;;;24.30;41.50;;;28.14;27.07;101796.38;5112197;28;20044;-12
2022/06/15 05:12:32;;;;;;;0.82;0.80;;;24.30;41.50;;;28.14;27.34;101788.28;5095247;28;20180;-12
2022/06/15 05:14:57;;;;;;;1.25;0.90;;;24.30;41.50;;;28.16;26.92;101789.03;5095162;28;20065;-12
2022/06/15 05:17:25;;;;;;;1.10;1.00;;;24.30;41.40;;;28.16;27.17;101789.03;5110561;28;20055;-12
2022/06/15 05:19:51;;;;;;;1.23;0.90;;;24.30;41.40;;;28.16;27.00;101785.50;5095238;28;20051;-12
2022/06/15 05:22:18;;;;;;;1.05;1.00;;;24.30;41.40;;;28.21;26.86;101792.22;5094721;28;20046;-12
2022/06/15 05:24:46;;;;;;;1.67;0.98;;;24.40;42.00;;;28.20;27.15;101786.94;5095235;28;20047;-12
2022/06/15 05:27:16;;;;;;;2.22;1.10;;;24.40;41.40;;;28.22;27.13;101783.19;5095346;28;20047;-12
2022/06/15 05:29:41;;;;;;;1.20;1.00;;;24.40;41.40;;;28.22;26.94;101780.47;5113186;28;20043;-12
2022/06/15 05:32:12;;;;;;;1.48;1.00;;;24.40;41.30;;;28.23;27.10;101784.03;5094013;28;20052;-12
2022/06/15 05:34:38;;;;;;;1.35;1.10;;;24.40;41.30;;;28.21;27.09;101785.97;5095603;28;20073;-13
2022/06/15 05:37:05;;;;;;;1.73;0.98;;;24.40;41.30;;;28.27;27.00;101790.88;5094819;28;20138;-12
2022/06/15 05:39:34;;;;;;;1.73;0.90;;;24.50;41.30;;;28.27;26.73;101791.72;5094772;28;20047;-13
2022/06/15 05:42:03;;;;;;;1.27;0.90;;;24.50;41.20;;;28.29;26.76;101791.63;5093552;28;20082;-12
2022/06/15 05:44:42;;;;;;;1.17;0.70;;;24.50;41.20;;;28.35;26.91;101801.03;5093318;28;20040;-12
2022/06/15 05:47:11;;;;;;;1.17;0.80;;;24.50;41.20;;;28.36;26.85;101794.69;5095088;28;20075;-12
2022/06/15 05:49:54;;;;;;;1.98;1.00;;;24.50;41.20;;;28.34;27.07;101792.09;5113088;28;20040;-13
2022/06/15 05:52:28;;;;;;;1.35;1.20;;;24.50;41.20;;;28.34;26.97;101788.56;5094965;28;20044;-12
2022/06/15 05:54:58;;;;;;;1.05;0.95;;;24.50;41.20;;;28.37;26.77;101799.94;5094490;28;20050;-12
2022/06/15 05:57:26;;;;;;;1.70;1.00;;;24.60;41.20;;;28.40;27.02;101799.69;5112684;28;20052;-12
2022/06/15 05:59:54;;;;;;;1.15;1.05;;;24.60;41.10;;;28.46;26.96;101792.97;5112864;28;20043;-12
2022/06/15 06:02:23;;;;;;;1.40;1.15;;;24.70;41.00;;;28.44;27.01;101789.53;5111232;28;20055;-12
2022/06/15 06:04:49;;;;;;;2.15;1.15;;;24.70;41.00;;;28.51;26.87;101806.91;5112833;28;20040;-12
2022/06/15 06:07:16;;;;;;;2.05;0.88;;;24.80;40.90;;;28.56;26.71;101804.72;5112405;28;20048;-12
2022/06/15 06:09:42;;;;;;;1.15;1.05;;;24.80;40.90;;;28.55;26.86;101797.63;5112956;28;20464;-13
2022/06/15 06:12:09;;;;;;;0.93;0.90;;;24.80;40.80;;;28.61;26.74;101809.75;5112627;28;20051;-12
2022/06/15 06:14:37;;;;;;;2.35;1.10;;;24.80;40.80;;;28.63;26.58;101805.09;5115883;28;20069;-13
2022/06/15 06:17:07;;;;;;;1.73;1.17;;;24.90;40.80;;;28.67;26.50;101813.78;5115896;28;20036;-13
2022/06/15 06:19:33;;;;;;;1.05;0.85;;;24.90;40.80;;;28.67;26.71;101800.31;5115753;28;20047;-12
2022/06/15 06:21:59;;;;;;;2.08;1.10;;;24.90;40.70;;;28.74;26.60;101810.47;5116068;28;20059;-13
2022/06/15 06:24:25;;;;;;;1.55;0.90;;;25.00;40.60;;;28.79;26.71;101797.50;5114349;28;20127;-13
2022/06/15 06:26:58;;;;;;;1.05;0.95;;;25.10;40.50;;;28.82;26.65;101801.78;5116246;28;20470;-12
2022/06/15 06:29:30;;;;;;;0.82;0.80;;;25.10;40.40;;;28.86;26.41;101803.25;5114490;28;20505;-12
2022/06/15 06:32:00;;;;;;;1.40;1.02;;;25.20;40.40;;;28.91;26.26;101808.25;5098119;28;20040;-12
2022/06/15 06:34:29;;;;;;;2.35;1.00;;;25.20;40.40;;;28.94;26.28;101810.72;5098184;28;20453;-12
2022/06/15 06:36:56;;;;;;;1.50;1.10;;;25.20;40.30;;;28.99;26.16;101811.19;5115867;28;20043;-12
2022/06/15 06:39:26;;;;;;;1.50;1.17;;;25.20;40.20;;;28.98;26.27;101806.75;5097619;28;20039;-12
2022/06/15 06:41:56;;;;;;;1.42;1.10;;;25.20;40.20;;;29.01;26.36;101812.75;5096461;28;20496;-12
2022/06/15 06:44:23;;;;;;;1.67;1.00;;;25.30;40.20;;;29.06;26.17;101809.69;5116180;28;20096;-13
2022/06/15 06:46:50;;;;;;;1.90;1.05;;;25.20;40.20;;;29.02;26.36;101811.78;5115739;28;20047;-13
2022/06/15 06:49:17;;;;;;;1.23;0.95;;;25.30;40.20;;;29.06;26.47;101814.22;5115794;28;20073;-12
2022/06/15 06:51:44;;;;;;;2.15;1.10;;;25.40;40.20;;;29.09;26.03;101805.91;5115961;28;20055;-13
2022/06/15 06:54:13;;;;;;;2.58;1.08;;;25.40;40.10;;;29.14;26.16;101812.63;5115447;28;20090;-12
2022/06/15 06:56:39;;;;;;;2.42;1.10;;;25.50;40.00;;;29.21;25.98;101809.47;5115424;28;20048;-12
2022/06/15 06:59:08;;;;;;;1.77;1.20;;;25.60;39.90;;;29.27;26.00;101815.19;5115455;28;20055;-12
2022/06/15 07:01:36;;;;;;;1.20;1.10;;;25.60;39.80;;;29.33;26.06;101817.34;5114521;28;20051;-12
2022/06/15 07:04:02;;;;;;;1.00;0.90;;;25.60;39.70;;;29.38;25.88;101819.66;5115580;28;20075;-12
2022/06/15 07:06:28;;;;;;;1.50;0.88;;;25.70;39.70;;;29.40;25.92;101820.38;5115236;28;20418;-12
2022/06/15 07:08:54;;;;;;;1.60;0.95;;;25.70;39.70;;;29.45;25.82;101826.25;5115903;28;20048;-12
2022/06/15 07:11:20;;;;;;;1.85;1.10;;;25.80;39.70;;;29.45;25.86;101820.84;5097016;28;20134;-12
2022/06/15 07:13:46;;;;;;;1.02;0.90;;;25.80;39.70;;;29.51;25.89;101814.13;5115687;28;20052;-14
2022/06/15 07:16:19;;;;;;;1.85;0.93;;;25.80;39.60;;;29.47;25.75;101810.84;5115167;28;20043;-13
2022/06/15 07:18:46;;;;;;;1.40;1.00;;;25.90;39.60;;;29.54;25.82;101811.16;5115276;28;20055;-13
2022/06/15 07:21:19;;;;;;;1.23;1.13;;;25.90;39.50;;;29.59;25.69;101813.47;5115021;28;20407;-13
2022/06/15 07:23:49;;;;;;;1.05;0.95;;;25.90;39.50;;;29.64;25.72;101820.19;5115142;28;20134;-13
2022/06/15 07:26:21;;;;;;;1.20;0.90;;;25.90;39.40;;;29.61;25.68;101803.44;5114723;28;20113;-13
2022/06/15 07:28:48;;;;;;;1.42;1.30;;;25.90;39.40;;;29.66;25.75;101806.59;5115368;28;20044;-13
2022/06/15 07:31:28;;;;;;;0.95;0.88;;;26.00;39.50;;;29.71;25.62;101817.81;5114837;28;20502;-13
2022/06/15 07:33:55;;;;;;;1.10;0.80;;;26.00;39.40;;;29.74;25.57;101815.72;5115382;28;20052;-13
2022/06/15 07:36:23;;;;;;;1.95;1.25;;;26.00;39.40;;;29.72;25.43;101808.75;5114959;28;20044;-13
2022/06/15 07:38:52;;;;;;;1.52;1.05;;;26.00;39.40;;;29.75;25.42;101814.75;5115197;28;20051;-13
2022/06/15 07:41:18;;;;;;;1.30;1.15;;;26.10;39.50;;;29.79;25.46;101818.06;5114818;28;20043;-13
2022/06/15 07:43:44;;;;;;;1.92;1.00;;;26.00;39.40;;;29.83;25.48;101816.81;5114840;28;20177;-13
2022/06/15 07:46:10;;;;;;;3.95;1.35;;;26.10;39.40;;;29.84;25.58;101818.53;5114585;28;20062;-13
2022/06/15 07:51:46;;;;;;;2.30;1.10;;;26.10;39.30;;;29.90;25.55;101817.13;5052175;28;20441;-13
2022/06/15 07:54:14;;;;;;;;;;;26.10;39.20;;;30.02;25.24;101812.53;5051663;28;20053;-13
2022/06/15 07:56:42;;;;;;;1.40;1.00;;;26.10;39.20;;;29.99;25.24;101815.47;5076124;28;19915;-13
2022/06/15 07:59:10;;;;;;;2.08;1.05;;;26.10;39.20;;;29.97;25.30;101812.06;5114527;28;20055;-13
2022/06/15 08:01:36;;;;;;;1.50;1.13;;;26.10;39.20;;;29.98;25.26;101824.59;5114104;28;20422;-13
2022/06/15 08:04:03;;;;;;;1.70;1.17;;;26.20;39.80;;;29.98;25.15;101820.03;5114379;28;20069;-13
2022/06/15 08:06:30;;;;;;;1.35;1.20;;;26.10;39.30;;;29.98;25.33;101819.19;5114047;28;20501;-13
2022/06/15 08:08:57;;;;;;;1.88;1.13;;;26.10;39.40;;;29.94;25.54;101813.22;5112767;28;20048;-13
2022/06/15 08:11:23;;;;;;;1.73;1.02;;;26.10;39.40;;;29.97;25.32;101814.78;5096547;28;20124;-13
2022/06/15 08:13:49;;;;;;;1.88;1.23;;;26.20;39.40;;;30.03;25.27;101825.88;5113920;28;20054;-14
2022/06/15 08:16:18;;;;;;;1.33;1.00;;;26.30;39.40;;;30.00;25.42;101806.41;5114137;28;20460;-13
2022/06/15 08:18:50;;;;;;;1.15;0.80;;;26.20;39.60;;;30.07;25.47;101812.97;5114234;28;20043;-13
2022/06/15 08:21:22;;;;;;;3.20;1.20;;;26.30;39.60;;;30.10;25.30;101819.00;5113900;28;20540;-13
2022/06/15 08:23:51;;;;;;;2.50;1.17;;;26.40;39.40;;;30.17;25.34;101810.34;5114369;28;20055;-13
2022/06/15 08:26:23;;;;;;;1.27;0.90;;;26.50;39.30;;;30.21;25.29;101811.81;5095693;28;20499;-13
2022/06/15 08:28:55;;;;;;;0.90;0.80;;;26.50;39.30;;;30.22;25.18;101800.00;5113568;28;20051;-13
2022/06/15 08:31:21;;;;;;;2.13;1.15;;;26.50;39.30;;;30.19;25.44;101800.28;5113946;28;20082;-14
2022/06/15 08:33:47;;;;;;;2.38;1.40;;;26.40;39.40;;;30.25;25.35;101800.59;5113891;28;20046;-14
2022/06/15 08:36:15;;;;;;;1.30;0.80;;;26.50;39.40;;;30.23;25.46;101805.28;5113757;28;20043;-14
2022/06/15 08:38:42;;;;;;;1.70;1.15;;;26.40;39.50;;;30.25;25.44;101799.75;5078846;28;20479;-13
2022/06/15 08:41:37;;;;;;;2.47;1.10;;;26.40;39.60;;;30.23;25.47;101799.88;5113805;28;20083;-11
2022/06/15 08:44:28;;;;;;;1.60;1.30;;;26.40;39.70;;;30.19;25.49;101795.75;5112822;28;20414;-14
2022/06/15 08:47:15;;;;;;;2.15;1.27;;;26.40;39.70;;;30.21;25.55;101806.41;5113472;28;20055;-13
2022/06/15 08:49:54;;;;;;;2.50;1.20;;;26.30;39.80;;;30.17;25.61;101799.56;5113350;28;20048;-14
2022/06/15 08:52:46;;;;;;;1.90;1.05;;;26.30;40.50;;;30.17;25.53;101794.16;5094538;28;20052;-14
2022/06/15 08:55:51;;;;;;;2.13;1.00;;;26.30;39.90;;;30.18;25.52;101794.03;5078169;28;20071;-14
2022/06/15 08:58:54;;;;;;;3.72;1.40;;;26.30;39.90;;;30.18;25.59;101798.59;5113537;28;20558;-13
2022/06/15 09:01:40;;;;;;;3.72;1.20;;;26.20;40.00;;;30.13;25.68;101796.28;5113536;28;20096;-13
2022/06/15 09:04:27;;;;;;;2.30;1.25;;;26.30;40.10;;;30.11;25.66;101790.16;5113400;28;20142;-13
2022/06/15 09:07:15;;;;;;;5.38;1.45;;;26.30;40.20;;;30.15;25.81;101797.00;5113112;28;20125;-14
2022/06/15 09:10:11;;;;;;;2.40;1.50;;;26.30;40.00;;;30.15;25.69;101797.00;5113392;28;20083;-13
2022/06/15 09:13:03;;;;;;;2.10;1.30;;;26.20;39.90;;;30.13;25.67;101793.59;5112971;28;20082;-11
2022/06/15 09:15:36;;;;;;;3.88;1.40;;;26.30;40.10;;;30.14;25.63;101794.44;5077835;28;20148;-12
2022/06/15 09:18:33;;;;;;;2.78;1.35;;;26.20;39.90;;;30.15;25.54;101798.84;5113261;28;20055;-14
2022/06/15 09:21:30;;;;;;;3.80;1.30;;;26.30;39.70;;;30.11;25.59;101791.00;5113440;28;20104;-12
2022/06/15 09:24:10;;;;;;;3.38;1.20;;;26.30;39.70;;;30.16;25.38;101796.03;5092955;28;20048;-14
2022/06/15 09:26:42;;;;;;;3.25;1.58;;;26.30;39.60;;;30.13;25.62;101790.88;5110761;28;20130;-13
2022/06/15 09:29:23;;;;;;;3.20;1.75;;;26.30;39.60;;;30.13;25.44;101787.34;5091158;28;20058;-13
2022/06/15 09:32:17;;;;;;;5.50;1.17;;;26.30;39.60;;;30.15;25.46;101791.59;5110586;28;20051;-12
2022/06/15 09:35:16;;;;;;;4.32;2.03;;;26.30;39.60;;;30.15;25.51;101793.44;5094430;28;20070;-12
2022/06/15 09:37:46;;;;;;;3.53;1.40;;;26.20;39.60;;;30.13;25.38;101784.66;5113088;28;20525;-11
2022/06/15 09:40:15;;;;;;;3.67;1.20;;;26.30;39.60;;;30.10;25.18;101783.06;5093558;28;20052;-12
2022/06/15 09:43:10;;;;;;;3.25;1.30;;;26.30;39.70;;;30.09;25.51;101786.75;5112652;28;20097;-12
2022/06/15 09:45:51;;;;;;;3.45;1.30;;;26.20;39.60;;;30.04;25.44;101772.81;5113250;28;20052;-11
2022/06/15 09:48:53;;;;;;;2.03;1.45;;;26.20;39.60;;;30.00;25.52;101774.91;5112093;28;20074;-12
2022/06/15 09:51:34;;;;;;;2.67;1.65;;;26.20;39.60;;;30.00;25.51;101779.44;5111439;28;20480;-12
2022/06/15 09:54:24;;;;;;;2.93;1.33;;;26.20;39.70;;;29.99;25.43;101781.31;5110993;28;20104;-12
2022/06/15 09:56:51;;;;;;;3.93;1.50;;;26.10;39.60;;;30.02;25.45;101783.75;5093966;28;20100;-12
2022/06/15 09:59:21;;;;;;;2.15;1.20;;;26.10;39.70;;;30.00;25.51;101788.38;5111829;28;20052;-13
2022/06/15 10:01:48;;;;;;;2.72;1.40;;;26.10;39.60;;;30.00;25.55;101795.63;5112216;28;20472;-12
2022/06/15 10:04:31;;;;;;;2.63;1.60;;;26.10;39.80;;;29.95;25.50;101773.59;5111298;28;20047;-12
2022/06/15 10:06:58;;;;;;;6.80;1.50;;;26.00;39.80;;;29.99;25.43;101780.44;5112252;28;20445;-12
2022/06/15 10:09:32;;;;;;;4.72;1.27;;;26.10;39.80;;;29.90;25.52;101764.09;5112786;28;20100;-12
2022/06/15 10:15:15;;;;;;;2.30;1.45;;;26.10;39.80;;;29.95;25.32;101771.75;5111774;28;20094;-13
2022/06/15 10:17:48;;;;;;;6.03;1.52;;;26.10;39.70;;;29.90;25.48;101757.81;5111737;28;20059;-13
2022/06/15 10:20:35;;;;;;;3.70;1.45;;;26.10;39.80;;;29.94;25.57;101767.38;5111987;28;20048;-13
2022/06/15 10:23:24;;;;;;;1.63;1.38;;;26.10;39.70;;;29.91;25.63;101754.16;5111829;28;20059;-13
2022/06/15 10:25:55;;;;;;;4.25;1.60;;;26.10;39.80;;;29.90;25.50;101760.53;5093784;28;20130;-13
2022/06/15 10:28:33;;;;;;;3.10;1.38;;;26.00;39.70;;;29.87;25.49;101761.66;5109452;28;20145;-14
2022/06/15 10:31:08;;;;;;;3.47;1.30;;;26.00;39.70;;;29.90;25.48;101763.22;5110372;28;20392;-13
2022/06/15 10:33:44;;;;;;;2.88;1.33;;;26.10;39.80;;;29.75;25.50;101738.41;5093859;28;20139;-13
2022/06/15 10:36:35;;;;;;;4.20;1.58;;;26.10;39.60;;;29.88;25.50;101757.09;5112308;28;20043;-14
2022/06/15 10:39:23;;;;;;;8.98;1.73;;;26.00;39.60;;;29.84;25.63;101748.44;5102810;28;20055;-14
2022/06/15 10:41:52;;;;;;;3.22;1.45;;;26.10;39.70;;;29.77;25.60;101743.66;5110192;28;20073;-14
2022/06/15 10:44:34;;;;;;;4.88;2.00;;;26.00;39.60;;;29.72;25.69;101728.75;5110051;28;20059;-15
2022/06/15 10:47:19;;;;;;;4.30;1.67;;;26.10;39.60;;;29.82;25.61;101742.31;5107046;28;20056;-15
2022/06/15 10:49:59;;;;;;;3.00;1.55;;;26.10;39.60;;;29.80;25.48;101738.88;5108284;28;20056;-15